sensor_id;sensor_type;location;lat;lon;timestamp;pressure;altitude;pressure_sealevel;temperature;humidity
26083;BME280;13848;49.018;12.078;2023-04-24T00:00:16;96700.56;;;11.75;85.41
26083;BME280;13848;49.018;12.078;2023-04-24T00:02:44;96705.06;;;11.86;85.21
26083;BME280;13848;49.018;12.078;2023-04-24T00:05:10;96700.72;;;11.85;85.45
26083;BME280;13848;49.018;12.078;2023-04-24T00:07:36;96696.94;;;11.86;85.29
26083;BME280;13848;49.018;12.078;2023-04-24T00:10:02;96694.47;;;12.07;83.99
26083;BME280;13848;49.018;12.078;2023-04-24T00:12:28;96684.44;;;11.80;85.85
26083;BME280;13848;49.018;12.078;2023-04-24T00:14:54;96693.84;;;11.99;84.55
26083;BME280;13848;49.018;12.078;2023-04-24T00:17:20;96687.34;;;11.95;84.85
26083;BME280;13848;49.018;12.078;2023-04-24T00:19:48;96685.03;;;12.09;84.25
26083;BME280;13848;49.018;12.078;2023-04-24T00:22:14;96680.53;;;12.20;84.36
26083;BME280;13848;49.018;12.078;2023-04-24T00:24:40;96674.59;;;12.18;83.92
26083;BME280;13848;49.018;12.078;2023-04-24T00:27:06;96670.19;;;12.12;83.91
26083;BME280;13848;49.018;12.078;2023-04-24T00:29:32;96670.00;;;11.91;85.05
26083;BME280;13848;49.018;12.078;2023-04-24T00:31:58;96678.03;;;11.86;85.43
26083;BME280;13848;49.018;12.078;2023-04-24T00:34:24;96674.09;;;11.99;84.71
26083;BME280;13848;49.018;12.078;2023-04-24T00:36:51;96665.28;;;12.09;84.36
26083;BME280;13848;49.018;12.078;2023-04-24T00:39:17;96669.69;;;12.15;84.49
26083;BME280;13848;49.018;12.078;2023-04-24T00:41:43;96663.16;;;12.11;84.52
26083;BME280;13848;49.018;12.078;2023-04-24T00:44:09;96674.91;;;11.94;85.39
26083;BME280;13848;49.018;12.078;2023-04-24T00:46:35;96671.19;;;11.79;85.61
26083;BME280;13848;49.018;12.078;2023-04-24T00:49:02;96671.75;;;11.59;87.56
26083;BME280;13848;49.018;12.078;2023-04-24T00:51:28;96674.84;;;11.67;87.43
26083;BME280;13848;49.018;12.078;2023-04-24T00:53:55;96677.41;;;11.79;86.34
26083;BME280;13848;49.018;12.078;2023-04-24T00:56:21;96684.25;;;11.87;86.34
26083;BME280;13848;49.018;12.078;2023-04-24T00:58:47;96681.97;;;12.01;85.44
26083;BME280;13848;49.018;12.078;2023-04-24T01:01:13;96672.84;;;12.07;84.77
26083;BME280;13848;49.018;12.078;2023-04-24T01:03:40;96667.72;;;12.10;84.82
26083;BME280;13848;49.018;12.078;2023-04-24T01:06:06;96664.22;;;12.10;84.52
26083;BME280;13848;49.018;12.078;2023-04-24T01:08:34;96668.97;;;11.97;85.07
26083;BME280;13848;49.018;12.078;2023-04-24T01:11:03;96677.06;;;11.97;85.78
26083;BME280;13848;49.018;12.078;2023-04-24T01:13:30;96670.69;;;11.82;86.11
26083;BME280;13848;49.018;12.078;2023-04-24T01:15:57;96668.88;;;11.87;85.85
26083;BME280;13848;49.018;12.078;2023-04-24T01:18:23;96671.41;;;11.72;86.95
26083;BME280;13848;49.018;12.078;2023-04-24T01:20:51;96665.09;;;11.88;86.18
26083;BME280;13848;49.018;12.078;2023-04-24T01:23:20;96667.34;;;11.96;85.96
26083;BME280;13848;49.018;12.078;2023-04-24T01:25:46;96671.34;;;11.89;85.78
26083;BME280;13848;49.018;12.078;2023-04-24T01:28:12;96665.28;;;12.09;85.04
26083;BME280;13848;49.018;12.078;2023-04-24T01:30:38;96668.66;;;12.21;84.18
26083;BME280;13848;49.018;12.078;2023-04-24T01:33:04;96666.00;;;12.26;83.99
26083;BME280;13848;49.018;12.078;2023-04-24T01:35:30;96667.94;;;12.31;83.87
26083;BME280;13848;49.018;12.078;2023-04-24T01:37:56;96668.16;;;12.29;84.23
26083;BME280;13848;49.018;12.078;2023-04-24T01:40:24;96669.25;;;12.28;84.63
26083;BME280;13848;49.018;12.078;2023-04-24T01:42:50;96674.44;;;12.35;84.73
26083;BME280;13848;49.018;12.078;2023-04-24T01:45:16;96671.44;;;12.31;84.57
26083;BME280;13848;49.018;12.078;2023-04-24T01:47:42;96668.44;;;12.28;84.29
26083;BME280;13848;49.018;12.078;2023-04-24T01:50:09;96662.66;;;12.14;84.68
26083;BME280;13848;49.018;12.078;2023-04-24T01:52:35;96666.09;;;12.09;85.06
26083;BME280;13848;49.018;12.078;2023-04-24T01:55:01;96667.78;;;12.15;85.21
26083;BME280;13848;49.018;12.078;2023-04-24T01:57:29;96665.69;;;12.22;84.56
26083;BME280;13848;49.018;12.078;2023-04-24T01:59:55;96659.78;;;12.25;85.06
26083;BME280;13848;49.018;12.078;2023-04-24T02:02:21;96652.06;;;12.07;86.29
26083;BME280;13848;49.018;12.078;2023-04-24T02:04:47;96657.34;;;12.24;85.22
26083;BME280;13848;49.018;12.078;2023-04-24T02:07:13;96656.00;;;12.27;84.99
26083;BME280;13848;49.018;12.078;2023-04-24T02:09:39;96652.13;;;12.17;85.56
26083;BME280;13848;49.018;12.078;2023-04-24T02:12:05;96648.59;;;12.12;85.38
26083;BME280;13848;49.018;12.078;2023-04-24T02:14:32;96643.78;;;12.19;84.93
26083;BME280;13848;49.018;12.078;2023-04-24T02:16:58;96651.88;;;12.19;84.95
26083;BME280;13848;49.018;12.078;2023-04-24T02:19:24;96654.59;;;12.19;84.69
26083;BME280;13848;49.018;12.078;2023-04-24T02:21:50;96645.41;;;12.20;85.49
26083;BME280;13848;49.018;12.078;2023-04-24T02:24:16;96640.50;;;12.17;85.03
26083;BME280;13848;49.018;12.078;2023-04-24T02:26:42;96642.66;;;12.15;85.12
26083;BME280;13848;49.018;12.078;2023-04-24T02:29:08;96629.63;;;12.07;85.91
26083;BME280;13848;49.018;12.078;2023-04-24T02:31:35;96632.00;;;12.03;85.56
26083;BME280;13848;49.018;12.078;2023-04-24T02:34:01;96625.00;;;12.02;86.16
26083;BME280;13848;49.018;12.078;2023-04-24T02:36:27;96625.75;;;11.97;85.78
26083;BME280;13848;49.018;12.078;2023-04-24T02:38:53;96628.97;;;11.94;85.64
26083;BME280;13848;49.018;12.078;2023-04-24T02:41:19;96624.50;;;12.10;85.41
26083;BME280;13848;49.018;12.078;2023-04-24T02:43:45;96618.66;;;12.18;84.66
26083;BME280;13848;49.018;12.078;2023-04-24T02:46:11;96620.53;;;12.18;84.18
26083;BME280;13848;49.018;12.078;2023-04-24T02:48:38;96618.88;;;12.12;84.75
26083;BME280;13848;49.018;12.078;2023-04-24T02:51:04;96618.88;;;12.12;84.60
26083;BME280;13848;49.018;12.078;2023-04-24T02:53:30;96619.63;;;12.07;84.76
26083;BME280;13848;49.018;12.078;2023-04-24T02:55:56;96615.84;;;12.08;84.61
26083;BME280;13848;49.018;12.078;2023-04-24T02:58:22;96617.16;;;12.01;84.79
26083;BME280;13848;49.018;12.078;2023-04-24T03:00:48;96623.88;;;11.76;86.27
26083;BME280;13848;49.018;12.078;2023-04-24T03:03:14;96621.06;;;11.61;87.44
26083;BME280;13848;49.018;12.078;2023-04-24T03:05:41;96616.25;;;11.68;86.89
26083;BME280;13848;49.018;12.078;2023-04-24T03:08:07;96620.78;;;11.62;86.98
26083;BME280;13848;49.018;12.078;2023-04-24T03:10:33;96621.06;;;11.61;86.96
26083;BME280;13848;49.018;12.078;2023-04-24T03:12:59;96616.25;;;11.68;86.91
26083;BME280;13848;49.018;12.078;2023-04-24T03:15:26;96615.13;;;11.64;87.34
26083;BME280;13848;49.018;12.078;2023-04-24T03:17:52;96610.47;;;11.81;86.12
26083;BME280;13848;49.018;12.078;2023-04-24T03:20:18;96607.31;;;11.89;86.10
26083;BME280;13848;49.018;12.078;2023-04-24T03:22:45;96618.63;;;11.86;85.51
26083;BME280;13848;49.018;12.078;2023-04-24T03:25:11;96621.97;;;11.71;86.19
26083;BME280;13848;49.018;12.078;2023-04-24T03:27:37;96618.16;;;11.67;86.40
26083;BME280;13848;49.018;12.078;2023-04-24T03:30:04;96620.09;;;11.72;86.06
26083;BME280;13848;49.018;12.078;2023-04-24T03:32:30;96617.81;;;11.64;86.16
26083;BME280;13848;49.018;12.078;2023-04-24T03:34:55;96622.06;;;11.55;87.24
26083;BME280;13848;49.018;12.078;2023-04-24T03:37:21;96622.78;;;11.72;86.06
26083;BME280;13848;49.018;12.078;2023-04-24T03:39:49;96615.88;;;11.81;85.76
26083;BME280;13848;49.018;12.078;2023-04-24T03:42:15;96631.88;;;11.88;85.15
26083;BME280;13848;49.018;12.078;2023-04-24T03:44:40;96632.31;;;11.80;85.17
26083;BME280;13848;49.018;12.078;2023-04-24T03:47:06;96630.84;;;11.67;85.64
26083;BME280;13848;49.018;12.078;2023-04-24T03:49:32;96629.50;;;11.69;85.33
26083;BME280;13848;49.018;12.078;2023-04-24T03:51:58;96632.56;;;11.78;84.80
26083;BME280;13848;49.018;12.078;2023-04-24T03:54:24;96639.09;;;11.82;84.64
26083;BME280;13848;49.018;12.078;2023-04-24T03:56:51;96639.19;;;11.65;85.21
26083;BME280;13848;49.018;12.078;2023-04-24T03:59:17;96634.63;;;11.71;84.93
26083;BME280;13848;49.018;12.078;2023-04-24T04:01:43;96640.03;;;11.71;85.10
26083;BME280;13848;49.018;12.078;2023-04-24T04:04:09;96634.63;;;11.71;84.49
26083;BME280;13848;49.018;12.078;2023-04-24T04:06:35;96643.25;;;11.68;84.95
26083;BME280;13848;49.018;12.078;2023-04-24T04:09:01;96639.81;;;11.72;84.67
26083;BME280;13848;49.018;12.078;2023-04-24T04:11:27;96641.56;;;11.62;84.71
26083;BME280;13848;49.018;12.078;2023-04-24T04:13:55;96640.22;;;11.37;85.13
26083;BME280;13848;49.018;12.078;2023-04-24T04:16:21;96631.75;;;11.29;85.32
26083;BME280;13848;49.018;12.078;2023-04-24T04:18:46;96633.63;;;11.28;86.11
26083;BME280;13848;49.018;12.078;2023-04-24T04:21:12;96639.22;;;11.43;85.62
26083;BME280;13848;49.018;12.078;2023-04-24T04:23:38;96644.47;;;11.55;85.16
26083;BME280;13848;49.018;12.078;2023-04-24T04:26:04;96639.38;;;11.59;84.48
26083;BME280;13848;49.018;12.078;2023-04-24T04:28:30;96645.34;;;11.61;84.48
26083;BME280;13848;49.018;12.078;2023-04-24T04:30:58;96635.91;;;11.63;84.74
26083;BME280;13848;49.018;12.078;2023-04-24T04:33:24;96634.63;;;11.66;84.52
26083;BME280;13848;49.018;12.078;2023-04-24T04:35:50;96642.13;;;11.64;83.69
26083;BME280;13848;49.018;12.078;2023-04-24T04:38:16;96638.50;;;11.53;84.33
26083;BME280;13848;49.018;12.078;2023-04-24T04:40:42;96636.31;;;11.50;84.08
26083;BME280;13848;49.018;12.078;2023-04-24T04:43:08;96643.16;;;11.58;84.11
26083;BME280;13848;49.018;12.078;2023-04-24T04:45:34;96642.13;;;11.64;83.47
26083;BME280;13848;49.018;12.078;2023-04-24T04:48:01;96645.09;;;11.62;84.01
26083;BME280;13848;49.018;12.078;2023-04-24T04:50:27;96647.03;;;11.67;83.78
26083;BME280;13848;49.018;12.078;2023-04-24T04:52:53;96643.81;;;11.70;82.86
26083;BME280;13848;49.018;12.078;2023-04-24T04:55:19;96637.81;;;11.63;83.97
26083;BME280;13848;49.018;12.078;2023-04-24T04:57:45;96638.88;;;11.62;83.70
26083;BME280;13848;49.018;12.078;2023-04-24T05:00:12;96642.66;;;11.61;82.93
26083;BME280;13848;49.018;12.078;2023-04-24T05:02:38;96643.66;;;11.55;83.35
26083;BME280;13848;49.018;12.078;2023-04-24T05:05:06;96635.00;;;11.53;83.54
26083;BME280;13848;49.018;12.078;2023-04-24T05:07:32;96651.25;;;11.58;83.64
26083;BME280;13848;49.018;12.078;2023-04-24T05:09:58;96646.50;;;11.70;83.10
26083;BME280;13848;49.018;12.078;2023-04-24T05:12:24;96645.19;;;11.72;82.41
26083;BME280;13848;49.018;12.078;2023-04-24T05:14:50;96650.81;;;11.66;82.46
26083;BME280;13848;49.018;12.078;2023-04-24T05:17:16;96654.88;;;11.68;82.94
26083;BME280;13848;49.018;12.078;2023-04-24T05:19:42;96652.50;;;11.72;82.72
26083;BME280;13848;49.018;12.078;2023-04-24T05:22:10;96651.16;;;11.75;83.20
26083;BME280;13848;49.018;12.078;2023-04-24T05:24:36;96659.66;;;11.61;82.89
26083;BME280;13848;49.018;12.078;2023-04-24T05:27:02;96667.63;;;11.73;83.06
26083;BME280;13848;49.018;12.078;2023-04-24T05:29:28;96664.41;;;11.76;82.47
26083;BME280;13848;49.018;12.078;2023-04-24T05:31:54;96666.59;;;11.79;82.29
26083;BME280;13848;49.018;12.078;2023-04-24T05:34:20;96674.66;;;11.74;82.70
26083;BME280;13848;49.018;12.078;2023-04-24T05:36:46;96667.41;;;11.80;82.60
26083;BME280;13848;49.018;12.078;2023-04-24T05:39:13;96672.28;;;11.56;83.25
26083;BME280;13848;49.018;12.078;2023-04-24T05:41:39;96673.66;;;11.36;83.29
26083;BME280;13848;49.018;12.078;2023-04-24T05:44:05;96679.19;;;11.46;82.65
26083;BME280;13848;49.018;12.078;2023-04-24T05:46:32;96670.84;;;11.48;82.96
26083;BME280;13848;49.018;12.078;2023-04-24T05:48:58;96674.13;;;11.50;83.08
26083;BME280;13848;49.018;12.078;2023-04-24T05:51:23;96679.50;;;11.50;83.00
26083;BME280;13848;49.018;12.078;2023-04-24T05:53:49;96673.31;;;11.50;82.99
26083;BME280;13848;49.018;12.078;2023-04-24T05:56:17;96683.69;;;11.63;82.36
26083;BME280;13848;49.018;12.078;2023-04-24T05:58:43;96685.59;;;11.62;82.68
26083;BME280;13848;49.018;12.078;2023-04-24T06:01:09;96681.00;;;11.63;82.45
26083;BME280;13848;49.018;12.078;2023-04-24T06:03:35;96685.59;;;11.40;83.07
26083;BME280;13848;49.018;12.078;2023-04-24T06:06:01;96685.09;;;11.43;83.27
26083;BME280;13848;49.018;12.078;2023-04-24T06:08:27;96685.25;;;11.59;83.10
26083;BME280;13848;49.018;12.078;2023-04-24T06:10:53;96683.81;;;11.73;82.36
26083;BME280;13848;49.018;12.078;2023-04-24T06:13:20;96684.59;;;11.46;82.29
26083;BME280;13848;49.018;12.078;2023-04-24T06:15:46;96690.59;;;11.54;82.52
26083;BME280;13848;49.018;12.078;2023-04-24T06:18:12;96694.31;;;11.48;82.98
26083;BME280;13848;49.018;12.078;2023-04-24T06:20:38;96687.59;;;11.72;82.34
26083;BME280;13848;49.018;12.078;2023-04-24T06:23:04;96693.94;;;11.83;81.55
26083;BME280;13848;49.018;12.078;2023-04-24T06:25:30;96692.41;;;11.70;82.25
26083;BME280;13848;49.018;12.078;2023-04-24T06:27:56;96688.19;;;11.79;81.64
26083;BME280;13848;49.018;12.078;2023-04-24T06:30:24;96695.38;;;11.90;82.18
26083;BME280;13848;49.018;12.078;2023-04-24T06:32:50;96688.63;;;11.71;81.27
26083;BME280;13848;49.018;12.078;2023-04-24T06:35:16;96696.53;;;11.51;81.99
26083;BME280;13848;49.018;12.078;2023-04-24T06:37:42;96703.47;;;11.68;81.82
26083;BME280;13848;49.018;12.078;2023-04-24T06:40:09;96691.91;;;11.73;81.63
26083;BME280;13848;49.018;12.078;2023-04-24T06:42:35;96697.13;;;11.58;81.14
26083;BME280;13848;49.018;12.078;2023-04-24T06:45:02;96701.59;;;11.69;81.55
26083;BME280;13848;49.018;12.078;2023-04-24T06:47:29;96691.91;;;11.73;81.24
26083;BME280;13848;49.018;12.078;2023-04-24T06:49:55;96693.16;;;11.87;81.25
26083;BME280;13848;49.018;12.078;2023-04-24T06:52:21;96693.16;;;11.87;81.13
26083;BME280;13848;49.018;12.078;2023-04-24T06:54:47;96698.13;;;11.95;80.39
26083;BME280;13848;49.018;12.078;2023-04-24T06:57:13;96690.09;;;12.01;80.93
26083;BME280;13848;49.018;12.078;2023-04-24T06:59:39;96687.81;;;11.92;80.50
26083;BME280;13848;49.018;12.078;2023-04-24T07:02:05;96694.25;;;11.86;80.44
26083;BME280;13848;49.018;12.078;2023-04-24T07:04:32;96693.88;;;12.05;80.89
26083;BME280;13848;49.018;12.078;2023-04-24T07:06:58;96694.41;;;12.02;79.79
26083;BME280;13848;49.018;12.078;2023-04-24T07:09:25;96696.50;;;11.94;79.71
26083;BME280;13848;49.018;12.078;2023-04-24T07:11:52;96698.44;;;11.99;80.31
26083;BME280;13848;49.018;12.078;2023-04-24T07:14:18;96700.38;;;12.04;79.25
26083;BME280;13848;49.018;12.078;2023-04-24T07:16:44;96695.06;;;11.87;79.76
26083;BME280;13848;49.018;12.078;2023-04-24T07:19:11;96693.94;;;12.10;80.04
26083;BME280;13848;49.018;12.078;2023-04-24T07:21:38;96702.63;;;12.12;79.40
26083;BME280;13848;49.018;12.078;2023-04-24T07:24:04;96696.78;;;12.25;79.81
26083;BME280;13848;49.018;12.078;2023-04-24T07:26:30;96692.41;;;12.19;78.84
26083;BME280;13848;49.018;12.078;2023-04-24T07:28:57;96688.59;;;12.15;78.70
26083;BME280;13848;49.018;12.078;2023-04-24T07:31:23;96688.03;;;12.13;78.91
26083;BME280;13848;49.018;12.078;2023-04-24T07:33:49;96692.00;;;12.32;78.15
26083;BME280;13848;49.018;12.078;2023-04-24T07:36:15;96699.63;;;12.40;77.08
26083;BME280;13848;49.018;12.078;2023-04-24T07:38:42;96698.56;;;12.41;77.83
26083;BME280;13848;49.018;12.078;2023-04-24T07:41:08;96698.16;;;12.60;78.18
26083;BME280;13848;49.018;12.078;2023-04-24T07:43:34;96699.88;;;12.71;77.58
26083;BME280;13848;49.018;12.078;2023-04-24T07:46:01;96700.13;;;12.69;77.15
26083;BME280;13848;49.018;12.078;2023-04-24T07:48:27;96701.19;;;12.68;76.63
26083;BME280;13848;49.018;12.078;2023-04-24T07:50:53;96699.25;;;12.64;76.86
26083;BME280;13848;49.018;12.078;2023-04-24T07:53:19;96702.91;;;12.79;77.22
26083;BME280;13848;49.018;12.078;2023-04-24T07:55:47;96704.22;;;12.72;76.52
26083;BME280;13848;49.018;12.078;2023-04-24T07:58:12;96708.03;;;12.76;76.67
26083;BME280;13848;49.018;12.078;2023-04-24T08:00:38;96718.53;;;12.72;76.68
26083;BME280;13848;49.018;12.078;2023-04-24T08:03:04;96713.94;;;12.73;76.28
26083;BME280;13848;49.018;12.078;2023-04-24T08:05:30;96714.50;;;12.75;76.09
26083;BME280;13848;49.018;12.078;2023-04-24T08:07:56;96711.13;;;12.58;76.13
26083;BME280;13848;49.018;12.078;2023-04-24T08:10:23;96703.13;;;12.73;75.57
26083;BME280;13848;49.018;12.078;2023-04-24T08:12:50;96706.63;;;13.16;75.87
26083;BME280;13848;49.018;12.078;2023-04-24T08:15:16;96708.22;;;13.54;75.33
26083;BME280;13848;49.018;12.078;2023-04-24T08:17:43;96708.06;;;13.81;73.28
26083;BME280;13848;49.018;12.078;2023-04-24T08:20:10;96706.34;;;13.60;73.12
26083;BME280;13848;49.018;12.078;2023-04-24T08:22:36;96710.72;;;13.71;71.93
26083;BME280;13848;49.018;12.078;2023-04-24T08:25:03;96712.28;;;13.56;70.94
26083;BME280;13848;49.018;12.078;2023-04-24T08:27:29;96709.16;;;13.95;71.29
26083;BME280;13848;49.018;12.078;2023-04-24T08:29:57;96720.56;;;14.02;70.77
26083;BME280;13848;49.018;12.078;2023-04-24T08:32:23;96739.75;;;13.80;70.47
26083;BME280;13848;49.018;12.078;2023-04-24T08:34:48;96747.88;;;12.54;66.54
26083;BME280;13848;49.018;12.078;2023-04-24T08:37:14;96752.38;;;12.16;67.73
26083;BME280;13848;49.018;12.078;2023-04-24T08:39:40;96761.88;;;11.53;68.84
26083;BME280;13848;49.018;12.078;2023-04-24T08:42:06;96765.50;;;11.41;70.12
26083;BME280;13848;49.018;12.078;2023-04-24T08:44:32;96763.50;;;11.54;70.22
26083;BME280;13848;49.018;12.078;2023-04-24T08:47:00;96765.50;;;11.63;71.22
26083;BME280;13848;49.018;12.078;2023-04-24T08:49:28;96763.34;;;11.82;72.33
26083;BME280;13848;49.018;12.078;2023-04-24T08:51:55;96773.19;;;11.93;71.12
26083;BME280;13848;49.018;12.078;2023-04-24T08:54:21;96763.22;;;11.72;70.23
26083;BME280;13848;49.018;12.078;2023-04-24T08:56:48;96764.50;;;11.69;71.72
26083;BME280;13848;49.018;12.078;2023-04-24T08:59:14;96767.56;;;11.95;72.27
26083;BME280;13848;49.018;12.078;2023-04-24T09:01:41;96770.84;;;12.24;71.78
26083;BME280;13848;49.018;12.078;2023-04-24T09:04:09;96775.72;;;12.27;71.10
26083;BME280;13848;49.018;12.078;2023-04-24T09:06:35;96774.94;;;12.05;70.55
26083;BME280;13848;49.018;12.078;2023-04-24T09:09:02;96760.22;;;12.17;70.67
26083;BME280;13848;49.018;12.078;2023-04-24T09:11:30;96768.03;;;12.14;70.46
26083;BME280;13848;49.018;12.078;2023-04-24T09:13:56;96759.88;;;12.09;72.20
26083;BME280;13848;49.018;12.078;2023-04-24T09:16:23;96763.06;;;12.06;72.19
26083;BME280;13848;49.018;12.078;2023-04-24T09:18:50;96761.44;;;12.59;72.17
26083;BME280;13848;49.018;12.078;2023-04-24T09:21:17;96764.94;;;12.91;71.80
26083;BME280;13848;49.018;12.078;2023-04-24T09:23:45;96755.00;;;13.02;70.60
26083;BME280;13848;49.018;12.078;2023-04-24T09:26:11;96760.09;;;12.98;70.91
26083;BME280;13848;49.018;12.078;2023-04-24T09:28:39;96752.56;;;13.38;71.33
26083;BME280;13848;49.018;12.078;2023-04-24T09:31:07;96757.06;;;13.22;70.57
26083;BME280;13848;49.018;12.078;2023-04-24T09:33:33;96743.69;;;13.05;69.50
26083;BME280;13848;49.018;12.078;2023-04-24T09:35:59;96745.06;;;13.13;69.95
26083;BME280;13848;49.018;12.078;2023-04-24T09:38:36;96743.31;;;13.28;69.13
26083;BME280;13848;49.018;12.078;2023-04-24T09:41:05;96759.66;;;13.49;68.67
26083;BME280;13848;49.018;12.078;2023-04-24T09:43:32;96761.00;;;13.46;67.20
26083;BME280;13848;49.018;12.078;2023-04-24T09:45:59;96786.53;;;13.61;65.62
26083;BME280;13848;49.018;12.078;2023-04-24T09:48:30;96776.88;;;13.80;65.90
26083;BME280;13848;49.018;12.078;2023-04-24T09:50:56;96784.06;;;14.17;65.93
26083;BME280;13848;49.018;12.078;2023-04-24T09:53:24;96776.44;;;14.03;64.69
26083;BME280;13848;49.018;12.078;2023-04-24T09:55:51;96765.09;;;14.27;65.34
26083;BME280;13848;49.018;12.078;2023-04-24T09:58:17;96777.91;;;13.74;63.39
26083;BME280;13848;49.018;12.078;2023-04-24T10:00:45;96779.59;;;13.80;63.14
26083;BME280;13848;49.018;12.078;2023-04-24T10:03:11;96784.44;;;13.78;63.03
26083;BME280;13848;49.018;12.078;2023-04-24T10:05:37;96796.88;;;13.69;61.40
26083;BME280;13848;49.018;12.078;2023-04-24T10:08:06;96786.38;;;13.35;63.00
26083;BME280;13848;49.018;12.078;2023-04-24T10:10:33;96790.81;;;13.14;61.07
26083;BME280;13848;49.018;12.078;2023-04-24T10:13:01;96800.09;;;12.91;63.27
26083;BME280;13848;49.018;12.078;2023-04-24T10:15:27;96808.00;;;12.98;63.94
26083;BME280;13848;49.018;12.078;2023-04-24T10:17:53;96796.53;;;13.18;63.39
26083;BME280;13848;49.018;12.078;2023-04-24T10:20:21;96803.06;;;13.22;63.01
26083;BME280;13848;49.018;12.078;2023-04-24T10:22:48;96804.19;;;13.26;61.42
26083;BME280;13848;49.018;12.078;2023-04-24T10:25:14;96808.06;;;13.35;61.29
26083;BME280;13848;49.018;12.078;2023-04-24T10:27:41;96809.63;;;13.31;61.55
26083;BME280;13848;49.018;12.078;2023-04-24T10:30:12;96805.97;;;13.15;62.11
26083;BME280;13848;49.018;12.078;2023-04-24T10:32:38;96806.38;;;13.29;62.65
26083;BME280;13848;49.018;12.078;2023-04-24T10:35:06;96807.00;;;13.41;62.59
26083;BME280;13848;49.018;12.078;2023-04-24T10:37:34;96811.66;;;13.14;60.13
26083;BME280;13848;49.018;12.078;2023-04-24T10:40:03;96809.44;;;13.05;60.17
26083;BME280;13848;49.018;12.078;2023-04-24T10:42:29;96807.34;;;13.18;59.90
26083;BME280;13848;49.018;12.078;2023-04-24T10:44:55;96808.06;;;13.35;60.82
26083;BME280;13848;49.018;12.078;2023-04-24T10:47:22;96803.44;;;13.36;57.74
26083;BME280;13848;49.018;12.078;2023-04-24T10:49:50;96814.50;;;13.29;58.60
26083;BME280;13848;49.018;12.078;2023-04-24T10:52:16;96802.28;;;13.69;57.84
26083;BME280;13848;49.018;12.078;2023-04-24T10:54:44;96817.53;;;13.85;57.20
26083;BME280;13848;49.018;12.078;2023-04-24T10:57:26;96805.13;;;13.99;58.61
26083;BME280;13848;49.018;12.078;2023-04-24T11:00:10;96803.16;;;14.52;59.09
26083;BME280;13848;49.018;12.078;2023-04-24T11:02:40;96799.84;;;14.45;58.05
26083;BME280;13848;49.018;12.078;2023-04-24T11:05:07;96798.72;;;14.21;55.81
26083;BME280;13848;49.018;12.078;2023-04-24T11:08:12;96798.16;;;14.19;55.74
26083;BME280;13848;49.018;12.078;2023-04-24T11:10:44;96805.16;;;14.15;55.79
26083;BME280;13848;49.018;12.078;2023-04-24T11:13:10;96800.66;;;13.73;55.39
26083;BME280;13848;49.018;12.078;2023-04-24T11:15:36;96800.06;;;13.61;55.63
26083;BME280;13848;49.018;12.078;2023-04-24T11:18:04;96796.69;;;13.38;55.66
26083;BME280;13848;49.018;12.078;2023-04-24T11:20:30;96802.06;;;13.33;56.02
26083;BME280;13848;49.018;12.078;2023-04-24T11:23:03;96807.34;;;13.18;54.79
26083;BME280;13848;49.018;12.078;2023-04-24T11:25:30;96808.84;;;13.03;55.96
26083;BME280;13848;49.018;12.078;2023-04-24T11:28:03;96811.09;;;13.12;56.59
26083;BME280;13848;49.018;12.078;2023-04-24T11:30:29;96829.63;;;13.25;56.77
26083;BME280;13848;49.018;12.078;2023-04-24T11:33:02;96843.81;;;12.78;57.71
26083;BME280;13848;49.018;12.078;2023-04-24T11:35:29;96844.47;;;12.63;60.29
26083;BME280;13848;49.018;12.078;2023-04-24T11:37:55;96850.97;;;12.35;61.56
26083;BME280;13848;49.018;12.078;2023-04-24T11:40:22;96858.38;;;12.23;62.17
26083;BME280;13848;49.018;12.078;2023-04-24T11:42:49;96847.94;;;12.10;62.22
26083;BME280;13848;49.018;12.078;2023-04-24T11:45:18;96847.41;;;12.35;62.66
26083;BME280;13848;49.018;12.078;2023-04-24T11:47:45;96849.97;;;12.19;61.37
26083;BME280;13848;49.018;12.078;2023-04-24T11:50:13;96841.78;;;11.92;61.57
26083;BME280;13848;49.018;12.078;2023-04-24T11:52:41;96838.63;;;12.44;61.34
26083;BME280;13848;49.018;12.078;2023-04-24T11:55:12;96841.91;;;13.05;61.04
26083;BME280;13848;49.018;12.078;2023-04-24T11:57:49;96832.63;;;13.71;59.87
26083;BME280;13848;49.018;12.078;2023-04-24T12:00:17;96829.53;;;13.99;59.65
26083;BME280;13848;49.018;12.078;2023-04-24T12:02:44;96828.34;;;13.85;57.58
26083;BME280;13848;49.018;12.078;2023-04-24T12:05:19;96830.91;;;14.07;56.91
26083;BME280;13848;49.018;12.078;2023-04-24T12:07:46;96825.84;;;14.31;56.83
26083;BME280;13848;49.018;12.078;2023-04-24T12:10:12;96821.09;;;14.69;56.45
26083;BME280;13848;49.018;12.078;2023-04-24T12:12:38;96816.22;;;15.27;55.32
26083;BME280;13848;49.018;12.078;2023-04-24T12:15:07;96836.56;;;15.60;55.52
26083;BME280;13848;49.018;12.078;2023-04-24T12:17:34;96832.50;;;15.16;54.61
26083;BME280;13848;49.018;12.078;2023-04-24T12:20:02;96832.47;;;14.76;52.92
26083;BME280;13848;49.018;12.078;2023-04-24T12:22:28;96835.72;;;14.57;53.62
26083;BME280;13848;49.018;12.078;2023-04-24T12:25:00;96839.50;;;14.51;53.86
26083;BME280;13848;49.018;12.078;2023-04-24T12:27:28;96837.69;;;14.15;53.94
26083;BME280;13848;49.018;12.078;2023-04-24T12:29:56;96827.91;;;13.98;53.30
26083;BME280;13848;49.018;12.078;2023-04-24T12:32:22;96831.66;;;13.97;52.97
26083;BME280;13848;49.018;12.078;2023-04-24T12:34:49;96836.69;;;14.31;52.71
26083;BME280;13848;49.018;12.078;2023-04-24T12:37:15;96831.63;;;14.55;52.46
26083;BME280;13848;49.018;12.078;2023-04-24T12:39:58;96818.91;;;15.01;53.48
26083;BME280;13848;49.018;12.078;2023-04-24T12:42:26;96815.66;;;15.35;52.27
26083;BME280;13848;49.018;12.078;2023-04-24T12:44:56;96822.19;;;15.24;50.72
26083;BME280;13848;49.018;12.078;2023-04-24T12:47:22;96820.03;;;15.05;50.13